createdAt,value
2018-07-04T00:00:27.161Z,6.70
2018-07-04T00:03:06.765Z,7.43
2018-07-04T00:05:46.476Z,6.70
2018-07-04T00:08:25.988Z,7.57
2018-07-04T00:11:05.498Z,6.57
2018-07-04T00:13:44.936Z,6.73
2018-07-04T00:16:24.508Z,6.33
2018-07-04T00:19:03.917Z,6.43
2018-07-04T00:21:43.569Z,5.40
2018-07-04T00:24:22.903Z,5.73
2018-07-04T00:27:02.322Z,6.00
2018-07-04T00:29:42.253Z,6.63
2018-07-04T00:32:21.778Z,5.80
2018-07-04T00:35:01.287Z,6.60
2018-07-04T00:37:40.781Z,6.27
2018-07-04T00:40:22.157Z,6.50
2018-07-04T00:43:01.521Z,9.40
2018-07-04T00:45:41.228Z,6.03
2018-07-04T00:48:20.761Z,6.60
2018-07-04T00:51:00.514Z,6.30
2018-07-04T00:53:40.089Z,4.77
2018-07-04T00:56:20.021Z,5.90
2018-07-04T00:58:59.651Z,4.77
2018-07-04T01:01:39.045Z,5.87
2018-07-04T01:04:18.770Z,6.30
2018-07-04T01:06:58.373Z,5.63
2018-07-04T01:09:37.929Z,6.73
2018-07-04T01:12:17.645Z,5.50
2018-07-04T01:14:57.249Z,5.20
2018-07-04T01:17:37.097Z,4.60
2018-07-04T01:20:16.621Z,6.97
2018-07-04T01:22:56.179Z,5.93
2018-07-04T01:25:35.882Z,5.60
2018-07-04T01:28:15.495Z,7.07
2018-07-04T01:30:56.205Z,6.00
2018-07-04T01:33:36.038Z,5.80
2018-07-04T01:36:15.700Z,5.27
2018-07-04T01:38:55.209Z,6.53
2018-07-04T01:41:34.757Z,6.33
2018-07-04T01:44:14.356Z,6.30
2018-07-04T01:46:53.867Z,5.80
2018-07-04T01:49:33.441Z,6.57
2018-07-04T01:52:13.037Z,7.10
2018-07-04T01:54:52.442Z,5.80
2018-07-04T01:57:31.906Z,7.13
2018-07-04T02:00:12.312Z,7.90
2018-07-04T02:02:51.838Z,7.40
2018-07-04T02:05:31.525Z,6.80
2018-07-04T02:08:10.901Z,7.47
2018-07-04T02:10:50.459Z,7.77
2018-07-04T02:13:30.021Z,7.70
2018-07-04T02:16:09.522Z,7.40
2018-07-04T02:18:49.048Z,7.97
2018-07-04T02:21:28.667Z,9.27
2018-07-04T02:24:08.356Z,10.20
2018-07-04T02:26:47.949Z,9.40
2018-07-04T02:29:27.620Z,11.30
2018-07-04T02:32:07.425Z,12.90
2018-07-04T02:34:46.961Z,11.10
2018-07-04T02:37:26.663Z,11.03
2018-07-04T02:40:07.665Z,9.97
2018-07-04T02:42:47.314Z,11.47
2018-07-04T02:45:27.300Z,10.27
2018-07-04T02:48:06.887Z,10.13
2018-07-04T02:50:46.520Z,10.10
2018-07-04T02:53:26.124Z,9.90
2018-07-04T02:56:05.691Z,9.63
2018-07-04T02:58:45.192Z,10.00
2018-07-04T03:01:24.773Z,9.73
2018-07-04T03:04:04.331Z,11.50
2018-07-04T03:06:43.974Z,9.33
2018-07-04T03:09:23.579Z,9.33
2018-07-04T03:12:03.334Z,11.10
2018-07-04T03:14:42.990Z,10.10
2018-07-04T03:17:22.534Z,10.73
2018-07-04T03:20:01.989Z,9.23
2018-07-04T03:22:41.685Z,9.30
2018-07-04T03:25:21.383Z,10.70
2018-07-04T03:28:01.469Z,10.43
2018-07-04T03:30:41.064Z,11.30
2018-07-04T03:33:20.622Z,10.93
2018-07-04T03:36:00.297Z,11.33
2018-07-04T03:38:39.997Z,11.03
2018-07-04T03:41:19.660Z,9.90
2018-07-04T03:43:59.166Z,10.13
2018-07-04T03:46:38.668Z,10.10
2018-07-04T03:49:18.474Z,10.40
2018-07-04T03:51:58.078Z,9.33
2018-07-04T03:54:37.721Z,9.83
2018-07-04T03:57:17.301Z,8.30
2018-07-04T03:59:56.964Z,8.87
2018-07-04T04:02:36.946Z,9.23
2018-07-04T04:05:17.417Z,8.40
2018-07-04T04:07:57.029Z,10.10
2018-07-04T04:10:36.629Z,8.63
2018-07-04T04:13:16.213Z,8.33
2018-07-04T04:15:55.825Z,7.90
2018-07-04T04:18:35.344Z,7.87
2018-07-04T04:21:14.805Z,8.90
2018-07-04T04:23:54.349Z,7.27
2018-07-04T04:26:33.741Z,8.13
2018-07-04T04:29:13.241Z,7.43
2018-07-04T04:31:52.685Z,6.80
2018-07-04T04:34:32.168Z,7.67
2018-07-04T04:37:12.828Z,8.07
2018-07-04T04:39:52.513Z,7.10
2018-07-04T04:42:32.138Z,6.87
2018-07-04T04:45:11.780Z,7.53
2018-07-04T04:47:51.343Z,7.10
2018-07-04T04:50:31.008Z,6.83
2018-07-04T04:53:10.637Z,6.87
2018-07-04T04:55:50.121Z,6.77
2018-07-04T04:58:29.773Z,7.78
2018-07-04T05:01:09.277Z,5.97
2018-07-04T05:03:48.773Z,5.67
2018-07-04T05:06:28.323Z,6.37
2018-07-04T05:09:07.866Z,3.90
2018-07-04T05:11:47.355Z,5.00
2018-07-04T05:14:26.881Z,3.87
2018-07-04T05:17:06.398Z,4.67
2018-07-04T05:19:45.984Z,4.17
2018-07-04T05:22:25.363Z,4.60
2018-07-04T05:25:05.014Z,3.67
2018-07-04T05:27:44.721Z,2.70
2018-07-04T05:30:24.412Z,2.90
2018-07-04T05:33:04.069Z,2.80
2018-07-04T05:35:43.609Z,2.40
2018-07-04T05:38:23.285Z,3.00
2018-07-04T05:41:02.860Z,2.23
2018-07-04T05:43:42.389Z,2.70
2018-07-04T05:46:21.817Z,3.40
2018-07-04T05:49:01.426Z,2.40
2018-07-04T05:51:40.932Z,2.30
2018-07-04T05:54:20.458Z,2.87
2018-07-04T05:56:59.827Z,3.27
2018-07-04T05:59:39.394Z,2.93
2018-07-04T06:02:18.960Z,4.17
2018-07-04T06:04:58.669Z,13.40
2018-07-04T06:07:38.173Z,2.53
2018-07-04T06:10:17.833Z,1.93
2018-07-04T06:12:57.256Z,2.77
2018-07-04T06:15:36.796Z,1.90
2018-07-04T06:18:16.341Z,2.17
2018-07-04T06:20:55.986Z,2.30
2018-07-04T06:23:35.610Z,1.80
2018-07-04T06:26:15.198Z,2.27
2018-07-04T06:28:54.735Z,1.90
2018-07-04T06:31:34.245Z,2.70
2018-07-04T06:34:14.853Z,2.13
2018-07-04T06:36:54.505Z,2.57
2018-07-04T06:39:22.149Z,2.10
2018-07-04T06:41:49.313Z,2.40
2018-07-04T06:44:16.460Z,1.83
2018-07-04T06:46:43.621Z,2.17
2018-07-04T06:49:10.793Z,2.30
2018-07-04T06:51:37.974Z,1.97
2018-07-04T06:54:05.130Z,3.10
2018-07-04T06:56:32.269Z,1.97
2018-07-04T06:58:59.451Z,1.80
2018-07-04T07:01:26.601Z,2.10
2018-07-04T07:04:06.282Z,1.87
2018-07-04T07:06:45.868Z,2.93
2018-07-04T07:09:26.873Z,1.90
2018-07-04T07:12:06.366Z,1.67
2018-07-04T07:14:45.856Z,1.10
2018-07-04T07:17:25.473Z,1.80
2018-07-04T07:20:05.001Z,1.63
2018-07-04T07:22:44.475Z,2.80
2018-07-04T07:25:23.936Z,1.67
2018-07-04T07:28:03.425Z,1.90
2018-07-04T07:30:43.137Z,2.17
2018-07-04T07:33:22.752Z,1.40
2018-07-04T07:36:02.223Z,1.60
2018-07-04T07:38:41.881Z,2.00
2018-07-04T07:41:21.557Z,1.80
2018-07-04T07:44:01.265Z,2.03
2018-07-04T07:46:40.961Z,2.93
2018-07-04T07:49:20.653Z,2.00
2018-07-04T07:52:00.401Z,2.07
2018-07-04T07:54:40.013Z,1.80
2018-07-04T07:57:19.645Z,1.73
2018-07-04T07:59:59.376Z,1.90
2018-07-04T08:02:38.869Z,2.07
2018-07-04T08:05:18.611Z,1.50
2018-07-04T08:07:58.161Z,2.07
2018-07-04T08:10:37.854Z,1.90
2018-07-04T08:13:17.462Z,2.10
2018-07-04T08:15:56.952Z,1.63
2018-07-04T08:18:36.553Z,1.43
2018-07-04T08:21:16.145Z,1.37
2018-07-04T08:23:55.940Z,1.70
2018-07-04T08:26:35.553Z,1.73
2018-07-04T08:29:15.105Z,1.80
2018-07-04T08:31:54.644Z,1.60
2018-07-04T08:34:34.327Z,2.10
2018-07-04T08:37:13.933Z,2.13
2018-07-04T08:39:53.585Z,1.80
2018-07-04T08:42:33.207Z,2.23
2018-07-04T08:45:12.857Z,2.23
2018-07-04T08:47:52.442Z,2.20
2018-07-04T08:50:33.019Z,2.20
2018-07-04T08:53:12.633Z,1.87
2018-07-04T08:55:52.274Z,2.67
2018-07-04T08:58:31.912Z,2.57
2018-07-04T09:01:11.565Z,2.10
2018-07-04T09:03:51.249Z,2.00
2018-07-04T09:06:30.981Z,1.80
2018-07-04T09:09:10.943Z,2.07
2018-07-04T09:11:50.491Z,2.17
2018-07-04T09:14:29.797Z,2.30
2018-07-04T09:17:09.254Z,2.63
2018-07-04T09:19:49.012Z,2.30
2018-07-04T09:22:28.479Z,2.00
2018-07-04T09:25:08.089Z,2.30
2018-07-04T09:27:47.551Z,2.20
2018-07-04T09:30:27.268Z,2.20
2018-07-04T09:33:06.857Z,2.27
2018-07-04T09:35:46.574Z,2.10
2018-07-04T09:38:26.090Z,2.50
2018-07-04T09:41:05.638Z,2.03
2018-07-04T09:43:45.656Z,1.73
2018-07-04T09:46:25.163Z,2.23
2018-07-04T09:49:04.782Z,2.40
2018-07-04T09:51:44.421Z,2.67
2018-07-04T09:54:24.065Z,2.20
2018-07-04T09:57:03.682Z,2.00
2018-07-04T09:59:43.349Z,2.53
2018-07-04T10:02:22.928Z,2.10
2018-07-04T10:05:04.457Z,2.57
2018-07-04T10:07:43.933Z,2.67
2018-07-04T10:10:23.791Z,2.20
2018-07-04T10:13:03.441Z,3.13
2018-07-04T10:15:43.036Z,2.10
2018-07-04T10:18:22.571Z,2.47
2018-07-04T10:21:01.875Z,2.20
2018-07-04T10:23:41.444Z,2.70
2018-07-04T10:26:21.033Z,2.30
2018-07-04T10:29:00.629Z,2.00
2018-07-04T10:31:42.257Z,2.37
2018-07-04T10:34:21.762Z,2.50
2018-07-04T10:37:01.314Z,2.20
2018-07-04T10:39:40.910Z,2.33
2018-07-04T10:42:20.537Z,2.10
2018-07-04T10:45:00.213Z,2.30
2018-07-04T10:47:39.882Z,2.43
2018-07-04T10:50:19.268Z,2.50
2018-07-04T10:52:58.601Z,2.30
2018-07-04T10:55:39.201Z,2.87
2018-07-04T10:58:19.651Z,1.93
2018-07-04T11:00:59.104Z,2.43
2018-07-04T11:03:38.654Z,2.20
2018-07-04T11:06:18.141Z,2.20
2018-07-04T11:08:57.622Z,2.90
2018-07-04T11:11:37.077Z,2.40
2018-07-04T11:14:16.661Z,2.27
2018-07-04T11:16:56.171Z,1.90
2018-07-04T11:19:35.765Z,2.17
2018-07-04T11:22:16.289Z,2.27
2018-07-04T11:24:55.609Z,2.23
2018-07-04T11:27:36.033Z,2.03
2018-07-04T11:30:15.581Z,2.37
2018-07-04T11:32:54.993Z,2.30
2018-07-04T11:35:34.538Z,2.27
2018-07-04T11:38:14.168Z,2.20
2018-07-04T11:40:53.657Z,2.60
2018-07-04T11:43:33.349Z,2.67
2018-07-04T11:46:00.946Z,2.77
2018-07-04T11:48:28.344Z,2.93
2018-07-04T11:50:56.136Z,3.20
2018-07-04T11:53:23.457Z,4.90
2018-07-04T11:55:50.593Z,3.10
2018-07-04T11:58:17.841Z,3.87
2018-07-04T12:00:45.281Z,2.87
2018-07-04T12:03:21.793Z,3.47
2018-07-04T12:06:01.566Z,3.20
2018-07-04T12:08:28.733Z,3.17
2018-07-04T12:10:56.516Z,4.03
2018-07-04T12:13:24.792Z,3.63
2018-07-04T12:15:52.366Z,4.83
2018-07-04T12:18:19.503Z,5.13
2018-07-04T12:20:46.884Z,6.00
2018-07-04T12:23:14.501Z,4.80
2018-07-04T12:25:42.613Z,5.77
2018-07-04T12:28:09.765Z,5.87
2018-07-04T12:30:36.945Z,5.67
2018-07-04T12:33:04.429Z,5.80
2018-07-04T12:35:31.651Z,5.57
2018-07-04T12:37:58.793Z,4.23
2018-07-04T12:40:25.940Z,4.80
2018-07-04T12:42:53.101Z,5.13
2018-07-04T12:45:20.248Z,4.10
2018-07-04T12:47:47.444Z,4.20
2018-07-04T12:50:30.653Z,2.83
2018-07-04T12:52:57.825Z,3.70
2018-07-04T12:55:38.697Z,2.70
2018-07-04T12:58:19.264Z,2.80
2018-07-04T13:00:58.677Z,3.27
2018-07-04T13:03:38.290Z,2.80
2018-07-04T13:06:17.879Z,2.83
2018-07-04T13:08:57.486Z,3.33
2018-07-04T13:11:38.180Z,3.33
2018-07-04T13:14:17.821Z,3.47
2018-07-04T13:16:57.375Z,3.80
2018-07-04T13:19:37.048Z,3.37
2018-07-04T13:22:17.579Z,3.10
2018-07-04T13:24:57.066Z,3.47
2018-07-04T13:27:36.584Z,3.07
2018-07-04T13:30:16.018Z,3.47
2018-07-04T13:32:55.541Z,3.90
2018-07-04T13:35:35.164Z,4.60
2018-07-04T13:38:14.662Z,4.23
2018-07-04T13:40:54.158Z,3.30
2018-07-04T13:43:34.028Z,3.73
2018-07-04T13:46:13.694Z,4.33
2018-07-04T13:48:53.377Z,3.83
2018-07-04T13:51:32.918Z,3.63
2018-07-04T13:54:12.437Z,3.30
2018-07-04T13:56:52.148Z,4.17
2018-07-04T13:59:31.932Z,3.30
2018-07-04T14:02:11.521Z,3.80
2018-07-04T14:04:51.133Z,2.70
2018-07-04T14:07:30.632Z,3.40
2018-07-04T14:10:10.118Z,2.17
2018-07-04T14:12:49.588Z,2.63
2018-07-04T14:15:29.308Z,3.00
2018-07-04T14:18:08.854Z,2.07
2018-07-04T14:20:48.401Z,2.40
2018-07-04T14:23:29.037Z,2.10
2018-07-04T14:26:08.535Z,2.20
2018-07-04T14:28:48.377Z,2.17
2018-07-04T14:31:27.957Z,2.10
2018-07-04T14:34:07.586Z,2.27
2018-07-04T14:36:47.238Z,2.00
2018-07-04T14:39:26.796Z,2.10
2018-07-04T14:42:06.333Z,2.10
2018-07-04T14:44:45.899Z,2.60
2018-07-04T14:47:25.473Z,1.90
2018-07-04T14:50:05.009Z,2.20
2018-07-04T14:52:44.500Z,1.63
2018-07-04T14:55:24.014Z,1.60
2018-07-04T14:58:03.685Z,1.60
2018-07-04T15:00:43.253Z,1.87
2018-07-04T15:03:22.917Z,2.37
2018-07-04T15:06:03.796Z,1.67
2018-07-04T15:08:43.430Z,1.67
2018-07-04T15:11:23.065Z,1.50
2018-07-04T15:14:02.689Z,2.17
2018-07-04T15:16:42.329Z,1.87
2018-07-04T15:19:21.905Z,2.45
2018-07-04T15:22:01.454Z,2.23
2018-07-04T15:24:41.017Z,2.27
2018-07-04T15:27:23.829Z,1.90
2018-07-04T15:30:03.542Z,2.20
2018-07-04T15:32:43.053Z,2.53
2018-07-04T15:35:22.665Z,2.50
2018-07-04T15:38:02.348Z,1.97
2018-07-04T15:40:42.105Z,1.87
2018-07-04T15:43:21.808Z,2.00
2018-07-04T15:46:01.325Z,2.80
2018-07-04T15:48:41.501Z,1.07
2018-07-04T15:51:21.739Z,1.50
2018-07-04T15:54:01.485Z,1.30
2018-07-04T15:56:41.081Z,1.40
2018-07-04T15:59:20.618Z,1.30
2018-07-04T16:02:00.254Z,0.90
2018-07-04T16:04:39.869Z,1.40
2018-07-04T16:07:19.553Z,1.60
2018-07-04T16:09:59.065Z,1.20
2018-07-04T16:12:38.686Z,1.40
2018-07-04T16:15:18.276Z,1.23
2018-07-04T16:17:57.745Z,1.23
2018-07-04T16:20:37.285Z,0.90
2018-07-04T16:23:16.960Z,0.90
2018-07-04T16:25:56.713Z,1.10
2018-07-04T16:28:36.282Z,0.80
2018-07-04T16:31:15.755Z,0.90
2018-07-04T16:33:55.312Z,0.93
2018-07-04T16:36:34.950Z,1.00
2018-07-04T16:39:14.616Z,0.87
2018-07-04T16:41:54.506Z,1.23
2018-07-04T16:44:34.414Z,0.67
2018-07-04T16:47:14.494Z,1.57
2018-07-04T16:49:54.279Z,1.07
2018-07-04T16:52:35.001Z,0.90
2018-07-04T16:55:14.573Z,1.10
2018-07-04T16:57:54.196Z,0.80
2018-07-04T17:00:33.757Z,0.73
2018-07-04T17:03:13.321Z,0.90
2018-07-04T17:05:52.852Z,1.30
2018-07-04T17:08:32.411Z,1.00
2018-07-04T17:11:12.137Z,1.23
2018-07-04T17:13:52.029Z,0.70
2018-07-04T17:16:31.681Z,0.83
2018-07-04T17:19:11.495Z,1.10
2018-07-04T17:21:50.909Z,1.67
2018-07-04T17:24:30.470Z,0.90
2018-07-04T17:27:09.985Z,1.23
2018-07-04T17:29:49.637Z,0.87
2018-07-04T17:32:29.152Z,1.53
2018-07-04T17:35:09.582Z,0.80
2018-07-04T17:37:49.249Z,0.90
2018-07-04T17:40:28.734Z,1.30
2018-07-04T17:43:08.260Z,0.83
2018-07-04T17:45:47.857Z,0.70
2018-07-04T17:48:27.250Z,0.77
2018-07-04T17:51:06.982Z,1.00
2018-07-04T17:53:47.505Z,0.90
2018-07-04T17:56:27.143Z,1.33
2018-07-04T17:59:06.820Z,1.50
2018-07-04T18:01:46.500Z,0.87
2018-07-04T18:04:26.385Z,0.93
2018-07-04T18:07:06.185Z,1.10
2018-07-04T18:09:47.318Z,0.97
2018-07-04T18:12:26.876Z,0.93
2018-07-04T18:15:06.433Z,1.30
2018-07-04T18:17:45.972Z,1.00
2018-07-04T18:20:25.504Z,0.90
2018-07-04T18:23:05.174Z,1.43
2018-07-04T18:25:44.922Z,0.80
2018-07-04T18:28:24.427Z,1.67
2018-07-04T18:31:04.015Z,2.33
2018-07-04T18:33:43.644Z,0.90
2018-07-04T18:36:23.368Z,1.00
2018-07-04T18:39:03.485Z,1.10
2018-07-04T18:41:43.240Z,1.10
2018-07-04T18:44:23.055Z,1.30
2018-07-04T18:47:02.686Z,1.30
2018-07-04T18:49:42.161Z,0.80
2018-07-04T18:52:21.808Z,1.23
2018-07-04T18:55:01.441Z,1.60
2018-07-04T18:57:40.980Z,1.30
2018-07-04T19:00:20.437Z,1.40
2018-07-04T19:03:00.090Z,1.20
2018-07-04T19:05:39.773Z,1.53
2018-07-04T19:08:19.357Z,1.37
2018-07-04T19:10:59.033Z,1.20
2018-07-04T19:13:38.740Z,1.27
2018-07-04T19:16:18.360Z,1.20
2018-07-04T19:18:58.026Z,1.03
2018-07-04T19:21:37.669Z,1.50
2018-07-04T19:24:17.297Z,1.57
2018-07-04T19:26:57.005Z,1.50
2018-07-04T19:29:37.449Z,1.30
2018-07-04T19:32:17.026Z,1.23
2018-07-04T19:34:56.584Z,1.23
2018-07-04T19:37:36.077Z,1.40
2018-07-04T19:40:15.725Z,0.90
2018-07-04T19:42:55.300Z,1.73
2018-07-04T19:45:34.833Z,1.70
2018-07-04T19:48:14.305Z,1.77
2018-07-04T19:50:53.938Z,1.60
2018-07-04T19:53:33.412Z,1.60
2018-07-04T19:56:12.938Z,2.03
2018-07-04T19:58:52.501Z,2.00
2018-07-04T20:01:32.209Z,2.47
2018-07-04T20:04:11.741Z,1.80
2018-07-04T20:06:51.285Z,1.67
2018-07-04T20:09:31.149Z,2.00
2018-07-04T20:12:10.881Z,1.70
2018-07-04T20:14:50.514Z,1.80
2018-07-04T20:17:30.030Z,2.10
2018-07-04T20:20:09.723Z,1.90
2018-07-04T20:22:49.338Z,2.20
2018-07-04T20:25:28.961Z,2.27
2018-07-04T20:28:08.592Z,2.50
2018-07-04T20:30:48.761Z,2.30
2018-07-04T20:33:28.286Z,1.87
2018-07-04T20:36:07.921Z,2.37
2018-07-04T20:38:47.443Z,2.53
2018-07-04T20:41:26.929Z,2.13
2018-07-04T20:44:06.431Z,2.13
2018-07-04T20:46:45.976Z,2.00
2018-07-04T20:49:25.551Z,1.90
2018-07-04T20:52:05.263Z,2.67
2018-07-04T20:54:44.993Z,2.80
2018-07-04T20:57:24.665Z,2.50
2018-07-04T21:00:04.262Z,2.17
2018-07-04T21:02:43.797Z,2.33
2018-07-04T21:05:23.366Z,2.23
2018-07-04T21:08:02.890Z,1.80
2018-07-04T21:10:42.530Z,2.30
2018-07-04T21:13:22.377Z,2.10
2018-07-04T21:16:01.828Z,2.20
2018-07-04T21:18:41.266Z,2.87
2018-07-04T21:21:20.929Z,1.93
2018-07-04T21:24:00.557Z,2.53
2018-07-04T21:26:40.218Z,1.60
2018-07-04T21:29:19.936Z,1.97
2018-07-04T21:31:59.622Z,2.43
2018-07-04T21:34:39.261Z,1.87
2018-07-04T21:37:18.862Z,2.10
2018-07-04T21:39:58.511Z,1.80
2018-07-04T21:42:38.160Z,2.07
2018-07-04T21:45:17.836Z,2.40
2018-07-04T21:47:57.579Z,1.80
2018-07-04T21:50:37.070Z,2.10
2018-07-04T21:53:16.485Z,2.07
2018-07-04T21:55:57.081Z,2.10
2018-07-04T21:58:36.651Z,2.37
2018-07-04T22:01:16.133Z,2.33
2018-07-04T22:03:55.677Z,2.30
2018-07-04T22:06:35.129Z,2.00
2018-07-04T22:09:14.648Z,2.07
2018-07-04T22:11:54.285Z,2.07
2018-07-04T22:14:33.706Z,2.47
2018-07-04T22:17:13.293Z,2.30
2018-07-04T22:19:53.746Z,2.17
2018-07-04T22:22:33.240Z,2.40
2018-07-04T22:25:12.822Z,2.40
2018-07-04T22:27:52.402Z,2.40
2018-07-04T22:30:31.885Z,2.20
2018-07-04T22:33:12.624Z,2.27
2018-07-04T22:35:52.319Z,1.83
2018-07-04T22:38:32.013Z,2.30
2018-07-04T22:41:13.394Z,2.17
2018-07-04T22:43:53.153Z,1.70
2018-07-04T22:46:32.904Z,2.00
2018-07-04T22:49:12.530Z,1.97
2018-07-04T22:54:43.340Z,2.47
2018-07-04T22:57:22.806Z,2.00
2018-07-04T23:00:03.090Z,1.83
2018-07-04T23:02:42.885Z,2.03
2018-07-04T23:05:22.445Z,2.13
2018-07-04T23:08:02.012Z,1.57
2018-07-04T23:10:41.569Z,1.97
2018-07-04T23:13:21.361Z,1.77
2018-07-04T23:16:01.102Z,1.30
2018-07-04T23:18:40.805Z,1.90
2018-07-04T23:21:20.476Z,1.90
2018-07-04T23:24:00.154Z,2.07
2018-07-04T23:26:39.777Z,1.67
2018-07-04T23:29:19.290Z,1.57
2018-07-04T23:31:58.869Z,1.83
2018-07-04T23:34:38.448Z,1.40
2018-07-04T23:37:17.988Z,1.60
2018-07-04T23:39:57.655Z,1.70
2018-07-04T23:42:37.389Z,1.50
2018-07-04T23:45:16.948Z,2.27
2018-07-04T23:47:56.573Z,1.67
2018-07-04T23:50:36.231Z,2.07
2018-07-04T23:53:15.767Z,1.87
2018-07-04T23:55:55.389Z,1.70
2018-07-04T23:58:35.770Z,1.97
